Terminal Aerodrome Forecast
Issued by NWS Twin Cities, MN

Home | Current Version | Previous Version | Text Only | Print | Product List | Glossary On
Versions: 1 2 3 4 5 6 7 8 9 10 11 12 13 14 15 16 17
850
FTUS43 KMPX 081541 AAA
TAFSTC
TAF AMD
KSTC 081541Z 0816/0912 32018G28KT 6SM -SN BLSN OVC035
      TEMPO 0816/0819 1 1/2SM -SN OVC020
     FM082100 33018G24KT 5SM BLSN OVC025
     FM090000 32013G21KT P6SM BKN035=

USA.gov is the U.S. government's official web portal to all federal, state and local government web resources and services.